createdAt,value
2019-06-27T00:00:19.406Z,24.40
2019-06-27T00:05:25.021Z,24.30
2019-06-27T00:10:33.928Z,24.20
2019-06-27T00:15:37.473Z,24.10
2019-06-27T00:20:42.788Z,24.10
2019-06-27T00:25:48.118Z,24.10
2019-06-27T00:30:53.421Z,24.00
2019-06-27T00:35:58.766Z,23.80
2019-06-27T00:41:04.065Z,23.70
2019-06-27T00:46:09.382Z,23.70
2019-06-27T00:51:14.707Z,23.50
2019-06-27T00:56:20.182Z,23.40
2019-06-27T01:01:25.461Z,23.40
2019-06-27T01:06:30.759Z,23.50
2019-06-27T01:11:36.165Z,23.50
2019-06-27T01:16:41.418Z,23.50
2019-06-27T01:21:46.799Z,23.50
2019-06-27T01:26:52.130Z,23.50
2019-06-27T01:31:57.438Z,23.40
2019-06-27T01:37:02.761Z,23.40
2019-06-27T01:42:08.072Z,23.40
2019-06-27T01:47:13.413Z,23.50
2019-06-27T01:52:18.712Z,23.50
2019-06-27T01:57:24.241Z,23.40
2019-06-27T02:02:29.727Z,23.40
2019-06-27T02:07:36.145Z,23.20
2019-06-27T02:12:41.452Z,23.20
2019-06-27T02:17:46.753Z,23.00
2019-06-27T02:22:52.081Z,23.00
2019-06-27T02:28:03.913Z,23.00
2019-06-27T02:33:04.380Z,23.10
2019-06-27T02:38:10.024Z,23.20
2019-06-27T02:43:15.317Z,23.10
2019-06-27T02:48:21.678Z,23.00
2019-06-27T02:53:27.014Z,23.00
2019-06-27T02:58:32.820Z,22.70
2019-06-27T03:03:38.438Z,22.70
2019-06-27T03:08:43.771Z,22.80
2019-06-27T03:13:50.079Z,22.70
2019-06-27T03:18:55.400Z,22.70
2019-06-27T03:24:00.772Z,22.70
2019-06-27T03:29:09.337Z,22.80
2019-06-27T03:34:14.694Z,22.80
2019-06-27T03:39:20.053Z,22.70
2019-06-27T03:44:25.458Z,22.70
2019-06-27T03:49:30.786Z,22.70
2019-06-27T03:54:36.137Z,22.50
2019-06-27T03:59:41.597Z,22.20
2019-06-27T04:04:47.033Z,22.00
2019-06-27T04:09:52.456Z,22.00
2019-06-27T04:14:57.869Z,22.20
2019-06-27T04:20:03.195Z,22.20
2019-06-27T04:25:09.209Z,22.20
2019-06-27T04:30:14.809Z,22.30
2019-06-27T04:35:20.239Z,22.40
2019-06-27T04:40:25.761Z,22.40
2019-06-27T04:45:31.143Z,22.40
2019-06-27T04:50:36.752Z,22.60
2019-06-27T04:55:42.154Z,22.80
2019-06-27T05:00:47.554Z,23.00
2019-06-27T05:05:52.977Z,23.10
2019-06-27T05:10:59.427Z,23.20
2019-06-27T05:16:04.767Z,23.40
2019-06-27T05:21:10.090Z,23.60
2019-06-27T05:26:15.461Z,24.40
2019-06-27T05:31:20.785Z,24.40
2019-06-27T05:36:26.105Z,24.20
2019-06-27T05:41:31.432Z,24.90
2019-06-27T05:46:36.752Z,24.90
2019-06-27T05:51:42.107Z,24.80
2019-06-27T05:56:47.445Z,25.20
2019-06-27T06:01:52.767Z,25.30
2019-06-27T06:06:58.130Z,25.80
2019-06-27T06:12:03.436Z,25.80
2019-06-27T06:17:08.776Z,25.80
2019-06-27T06:22:14.111Z,26.20
2019-06-27T06:27:20.364Z,26.70
2019-06-27T06:32:25.852Z,27.00
2019-06-27T06:37:31.188Z,26.40
2019-06-27T06:42:36.552Z,26.80
2019-06-27T06:47:42.813Z,27.70
2019-06-27T06:52:48.148Z,27.90
2019-06-27T06:57:53.472Z,28.40
2019-06-27T07:02:58.818Z,29.10
2019-06-27T07:08:04.167Z,28.90
2019-06-27T07:13:09.491Z,28.50
2019-06-27T07:18:14.903Z,28.60
2019-06-27T07:23:20.222Z,28.80
2019-06-27T07:28:26.007Z,29.10
2019-06-27T07:33:31.545Z,30.30
2019-06-27T07:38:36.864Z,30.50
2019-06-27T07:43:42.194Z,31.30
2019-06-27T07:48:47.540Z,32.00
2019-06-27T07:53:52.863Z,32.40
2019-06-27T07:58:58.216Z,31.90
2019-06-27T08:04:03.531Z,32.10
2019-06-27T08:09:08.863Z,32.50
2019-06-27T08:14:14.197Z,32.90
2019-06-27T08:19:19.524Z,33.00
2019-06-27T08:24:24.871Z,33.40
2019-06-27T08:29:30.373Z,33.80
2019-06-27T08:34:36.084Z,33.80
2019-06-27T08:39:41.947Z,33.70
2019-06-27T08:44:47.851Z,34.70
2019-06-27T08:49:53.238Z,34.30
2019-06-27T08:54:58.542Z,35.10
2019-06-27T09:00:04.033Z,33.80
2019-06-27T09:05:10.273Z,34.20
2019-06-27T09:10:15.820Z,32.10
2019-06-27T09:15:21.358Z,31.70
2019-06-27T09:20:26.690Z,31.60
2019-06-27T09:25:32.070Z,31.10
2019-06-27T09:30:37.394Z,30.70
2019-06-27T09:35:43.807Z,32.60
2019-06-27T09:40:50.762Z,32.00
2019-06-27T09:45:56.106Z,34.10
2019-06-27T09:51:01.428Z,31.60
2019-06-27T09:56:06.759Z,32.00
2019-06-27T10:01:12.159Z,33.50
2019-06-27T10:06:17.527Z,31.40
2019-06-27T10:11:22.924Z,32.20
2019-06-27T10:16:28.280Z,31.70
2019-06-27T10:21:33.602Z,31.30
2019-06-27T10:26:39.003Z,31.10
2019-06-27T10:31:44.385Z,31.80
2019-06-27T10:36:49.747Z,32.40
2019-06-27T10:41:55.125Z,32.40
2019-06-27T10:47:00.737Z,32.20
2019-06-27T10:52:06.099Z,32.40
2019-06-27T10:57:11.475Z,31.70
2019-06-27T11:02:17.900Z,32.10
2019-06-27T11:07:23.268Z,33.60
2019-06-27T11:12:28.627Z,32.00
2019-06-27T11:17:35.231Z,32.90
2019-06-27T11:22:40.563Z,33.30
2019-06-27T11:27:45.932Z,32.70
2019-06-27T11:32:51.288Z,33.40
2019-06-27T11:37:56.628Z,33.20
2019-06-27T11:43:02.202Z,32.30
2019-06-27T11:48:07.845Z,32.10
2019-06-27T11:53:13.191Z,31.90
2019-06-27T11:58:18.536Z,32.00
2019-06-27T12:03:23.897Z,31.80
2019-06-27T12:08:30.568Z,32.40
2019-06-27T12:13:36.090Z,33.20
2019-06-27T12:18:41.430Z,33.90
2019-06-27T12:23:46.929Z,33.60
2019-06-27T12:28:52.297Z,33.40
2019-06-27T12:34:06.778Z,33.30
2019-06-27T12:39:04.851Z,32.80
2019-06-27T12:44:10.570Z,33.80
2019-06-27T12:49:15.954Z,32.60
2019-06-27T12:54:21.393Z,32.90
2019-06-27T12:59:26.720Z,32.10
2019-06-27T13:04:32.106Z,31.90
2019-06-27T13:09:37.418Z,33.40
2019-06-27T13:14:42.775Z,34.10
2019-06-27T13:19:49.207Z,33.60
2019-06-27T13:24:54.677Z,33.40
2019-06-27T13:30:00.026Z,33.20
2019-06-27T13:35:05.648Z,33.30
2019-06-27T13:40:11.490Z,33.30
2019-06-27T13:45:16.816Z,33.10
2019-06-27T13:50:22.179Z,32.60
2019-06-27T13:55:27.508Z,32.60
2019-06-27T14:00:43.516Z,32.40
2019-06-27T14:05:50.484Z,32.40
2019-06-27T14:10:55.788Z,32.00
2019-06-27T14:16:01.151Z,32.40
2019-06-27T14:21:06.496Z,32.10
2019-06-27T14:26:11.978Z,31.70
2019-06-27T14:31:17.292Z,31.90
2019-06-27T14:36:22.591Z,31.90
2019-06-27T14:41:27.907Z,31.90
2019-06-27T14:46:36.416Z,31.80
2019-06-27T14:51:40.301Z,31.90
2019-06-27T14:56:45.698Z,31.90
2019-06-27T15:01:51.122Z,32.00
2019-06-27T15:06:56.440Z,31.90
2019-06-27T15:12:01.849Z,32.30
2019-06-27T15:17:08.565Z,32.30
2019-06-27T15:22:14.092Z,31.80
2019-06-27T15:27:19.725Z,31.70
2019-06-27T15:32:25.042Z,32.00
2019-06-27T15:37:31.509Z,31.70
2019-06-27T15:42:39.011Z,31.70
2019-06-27T15:47:44.388Z,31.60
2019-06-27T15:52:49.704Z,31.50
2019-06-27T15:57:55.093Z,31.40
2019-06-27T16:03:00.480Z,31.10
2019-06-27T16:08:06.028Z,31.20
2019-06-27T16:13:11.386Z,31.00
2019-06-27T16:18:17.866Z,30.80
2019-06-27T16:23:23.183Z,30.80
2019-06-27T16:28:28.555Z,30.70
2019-06-27T16:33:34.024Z,30.80
2019-06-27T16:38:39.576Z,30.50
2019-06-27T16:43:45.322Z,30.40
2019-06-27T16:48:51.673Z,30.60
2019-06-27T16:53:57.927Z,30.30
2019-06-27T16:59:05.206Z,30.10
2019-06-27T17:04:12.705Z,30.00
2019-06-27T17:09:19.110Z,30.10
2019-06-27T17:14:24.484Z,29.90
2019-06-27T17:19:30.681Z,29.90
2019-06-27T17:24:36.207Z,29.70
2019-06-27T17:29:41.562Z,29.40
2019-06-27T17:34:46.881Z,29.30
2019-06-27T17:39:52.293Z,29.10
2019-06-27T17:44:57.656Z,28.90
2019-06-27T17:50:03.067Z,28.80
2019-06-27T17:55:08.507Z,28.70
2019-06-27T18:00:14.054Z,28.50
2019-06-27T18:05:19.625Z,28.40
2019-06-27T18:10:25.147Z,28.20
2019-06-27T18:15:30.548Z,28.10
2019-06-27T18:20:35.907Z,28.00
2019-06-27T18:25:41.311Z,27.70
2019-06-27T18:30:47.755Z,27.40
2019-06-27T18:35:53.087Z,27.30
2019-06-27T18:40:58.448Z,27.00
2019-06-27T18:46:03.772Z,27.00
2019-06-27T18:51:09.101Z,26.70
2019-06-27T18:56:14.549Z,26.80
2019-06-27T19:01:19.983Z,26.60
2019-06-27T19:06:25.319Z,26.70
2019-06-27T19:11:30.723Z,26.60
2019-06-27T19:16:36.111Z,26.60
2019-06-27T19:21:58.154Z,26.50
2019-06-27T19:27:04.691Z,26.40
2019-06-27T19:32:09.998Z,26.20
2019-06-27T19:37:15.330Z,26.10
2019-06-27T19:42:20.675Z,25.80
2019-06-27T19:47:25.981Z,25.50
2019-06-27T19:52:31.304Z,25.30
2019-06-27T19:57:36.649Z,25.30
2019-06-27T20:02:45.109Z,25.20
2019-06-27T20:07:50.623Z,24.80
2019-06-27T20:12:56.037Z,24.60
2019-06-27T20:18:01.419Z,24.60
2019-06-27T20:23:06.830Z,24.30
2019-06-27T20:28:12.226Z,24.00
2019-06-27T20:33:17.646Z,23.60
2019-06-27T20:38:34.366Z,23.30
2019-06-27T20:43:30.086Z,23.20
2019-06-27T20:48:35.419Z,23.30
2019-06-27T20:53:42.944Z,23.30
2019-06-27T20:58:48.349Z,23.20
2019-06-27T21:03:54.003Z,23.10
2019-06-27T21:08:59.426Z,23.00
2019-06-27T21:14:04.788Z,22.90
2019-06-27T21:19:10.161Z,22.80
2019-06-27T21:24:15.574Z,22.40
2019-06-27T21:29:22.116Z,22.20
2019-06-27T21:34:27.511Z,22.00
2019-06-27T21:39:32.871Z,22.00
2019-06-27T21:44:38.187Z,22.10
2019-06-27T21:49:43.496Z,22.00
2019-06-27T21:54:48.855Z,22.00
2019-06-27T21:59:54.215Z,21.90
2019-06-27T22:04:59.583Z,21.70
2019-06-27T22:10:08.847Z,21.70
2019-06-27T22:15:14.609Z,21.50
2019-06-27T22:20:22.605Z,21.50
2019-06-27T22:25:39.651Z,21.30
2019-06-27T22:30:35.488Z,21.20
2019-06-27T22:35:41.491Z,21.20
2019-06-27T22:41:05.415Z,21.20
2019-06-27T22:46:28.467Z,21.10
2019-06-27T22:51:51.382Z,21.10
2019-06-27T22:56:57.135Z,21.10
2019-06-27T23:02:02.622Z,21.00
2019-06-27T23:07:07.998Z,20.70
2019-06-27T23:12:13.625Z,20.60
2019-06-27T23:17:19.010Z,20.60
2019-06-27T23:22:24.468Z,20.40
2019-06-27T23:27:29.818Z,20.30
2019-06-27T23:32:35.136Z,20.00
2019-06-27T23:37:40.454Z,19.90
2019-06-27T23:42:45.781Z,19.60
2019-06-27T23:47:51.183Z,19.20
2019-06-27T23:52:56.621Z,19.10
2019-06-27T23:58:01.942Z,18.80
